Altamont, TN

12:49 AM CDT on April 25, 2017 (GMT -0500)
Altamont | | Change Station
Active Advisory: Dense Fog Advisory Active Notice: Public Information Statement

Elev 1850 ft 35.44 °N, 85.72 °W | Updated 4 minutes ago

Mostly Cloudy
Mostly Cloudy
54.5 °F
Feels Like 54.5 °F
N
0.0
Wind Variable Wind from WSW
Gusts 0.0 mph

Today
High -- | Low -- °F
--% Chance of Precip.
Yesterday
High -- | Low -- °F
Precip. -- in
Pressure 29.79 in
Visibility 9.0 miles
Clouds Scattered Clouds 600 ft
Dew Point 54 °F
Humidity 100%
Rainfall 0.00 in
Snow Depth Not available.
5:57 AM 7:24 PM
Waning Crescent, 2% visible
METAR KBGF 250535Z AUTO 00000KT 9SM SCT006 11/11 A2979 RMK
Pressure 29.79 in
Visibility 9.0 miles
Clouds Scattered Clouds 600 ft
Dew Point 54 °F
Humidity 100%
Rainfall 0.00 in
Snow Depth Not available.
5:57 AM 7:24 PM
Waning Crescent, 2% visible
METAR KBGF 250535Z AUTO 00000KT 9SM SCT006 11/11 A2979 RMK

Get Your Daily Forecast Email!

Thanks for signing up!

Be on the lookout for a verification email in your inbox.

You'll start receiving severe weather alerts in your inbox..

×

10-Day Weather Forecast

Almanac

Astronomy

Apr. 25, 2017 Rise Set
Actual Time
Civil Twilight
Nautical Twilight
Astronomical Twilight
Moon
Length of Visible Light
Length of Day
Tomorrow will be .
, % of the Moon is Illuminated

Today's Extremes

State Highs State Lows

Community

WunderPhotos

WunderBlog® & News

Nearby

Air Quality

  Air Quality AQ Index Pollutant
Not available.

Snow Depth

Station Depth Elevation

Earthquake Activity

City Distance Mag. Time & Date
Minimum magnitude displayed is 2.5.

Coastal Water Temperatures

Place Temperature

Stations

Nearby Weather Stations

Station Location Temp. Windchill Dew Point Humidity Wind Precip. Elev Updated Type
                   

Watches & Warnings

Dense Fog Advisory
Issued: 6:49 PM CDT Apr. 24, 2017 – National Weather Service

... Dense fog advisory in effect from 4 am to 9 am CDT Tuesday...

The National Weather Service in Nashville has issued a dense fog
advisory, which is in effect from 4 am to 9 am CDT Tuesday.

* Visibility... less than one quarter of a mile in many locations.

* Impacts... hazardous travel conditions expected.

Precautionary/preparedness actions...

A dense fog advisory means visibilities will frequently be
reduced to less than one quarter mile. If driving... slow down...
use your low beam headlights... and leave plenty of distance ahead
of you.


31